This is the latest recevied weather packets stored in our database for station/object IZ3TCG-13. If no packets are shown the sender has not sent any weather packets the latest 10 day(s).
| Time | Temp. | Humidity | Pressure | Rain* | Wind** | Luminosity | Snow |
|---|---|---|---|---|---|---|---|
| 1777888084 | 25° C | 51% | 1011.6 hPa | 0 mm | - | - | - |
| 1777887844 | 25° C | 50% | 1011.7 hPa | 0 mm | - | - | - |
| 1777887604 | 24.44° C | 54% | 1011.6 hPa | 0 mm | - | - | - |
| 1777887124 | 23.89° C | 54% | 1011.8 hPa | 0 mm | - | - | - |
| 1777885684 | 23.33° C | 56% | 1011.8 hPa | 0 mm | - | - | - |
| 1777885204 | 22.78° C | 58% | 1011.9 hPa | 0 mm | - | - | - |
| 1777883763 | 22.78° C | 60% | 1011.8 hPa | 0 mm | - | - | - |
| 1777883523 | 21.67° C | 61% | 1012 hPa | 0 mm | - | - | - |
| 1777882803 | 22.22° C | 62% | 1011.8 hPa | 0 mm | - | - | - |
| 1777880404 | 21.11° C | 66% | 1011.8 hPa | 0 mm | - | - | - |
| 1777879684 | 20.56° C | 69% | 1011.8 hPa | 0 mm | - | - | - |
| 1777878244 | 18.89° C | 73% | 1011.6 hPa | 0 mm | - | - | - |
| 1777877524 | 19.44° C | 70% | 1011.6 hPa | 0 mm | - | - | - |
| 1777876324 | 19.44° C | 70% | 1011.6 hPa | 0 mm | - | - | - |
| 1777875123 | 18.89° C | 69% | 1011.4 hPa | 0 mm | - | - | - |
| 1777874643 | 17.78° C | 70% | 1011.5 hPa | 0 mm | - | - | - |
| 1777873335 | 16.11° C | 74% | 1011.4 hPa | 0 mm | - | - | - |
| 1777872484 | 15° C | 78% | 1011.4 hPa | 0 mm | - | - | - |
| 1777872003 | 15° C | 79% | 1011.2 hPa | 0 mm | - | - | - |
| 1777869976 | 13.89° C | 82% | 1011 hPa | 0 mm | - | - | - |
| 1777869364 | 13.89° C | 83% | 1010.9 hPa | 0 mm | - | - | - |
| 1777868884 | 13.89° C | 84% | 1011 hPa | 0 mm | - | - | - |
| 1777868644 | 13.89° C | 84% | 1011 hPa | 0 mm | - | - | - |
| 1777867924 | 13.33° C | 85% | 1010.6 hPa | 0 mm | - | - | - |
| 1777867816 | 13.33° C | 85% | 1010.8 hPa | 0 mm | - | - | - |
* Rain latest hour (hover to see other rain measurements)
** Current wind speed in m/s (hover to see current wind gust speed)